createdAt,value
2019-06-04T12:21:15.742Z,101338.79
2019-06-04T12:23:36.459Z,101342.33
2019-06-04T12:26:04.918Z,101337.27
2019-06-04T12:28:32.708Z,101331.47
2019-06-04T12:31:00.534Z,101324.32
2019-06-04T12:33:28.048Z,101310.09
2019-06-04T12:35:56.640Z,101307.52
2019-06-04T12:38:24.131Z,101303.09
2019-06-04T12:40:51.678Z,101302.55
2019-06-04T12:43:19.290Z,101306.41
2019-06-04T12:45:47.609Z,101305.03
2019-06-04T12:48:15.563Z,101289.09
2019-06-04T12:50:43.122Z,101283.66
2019-06-04T12:53:10.919Z,101280.89
2019-06-04T12:55:38.729Z,101280.87
2019-06-04T12:58:06.434Z,101273.70
2019-06-04T13:00:34.223Z,101271.42
2019-06-04T13:03:03.067Z,101272.16
2019-06-04T13:05:30.749Z,101270.23
2019-06-04T13:07:59.725Z,101274.48
2019-06-04T13:10:33.197Z,101280.11
2019-06-04T13:12:59.158Z,101273.42
2019-06-04T13:15:26.804Z,101267.63
2019-06-04T13:17:54.434Z,101263.98
2019-06-04T13:20:29.888Z,101263.38
2019-06-04T13:22:56.202Z,101254.44
2019-06-04T13:25:21.216Z,101256.09
2019-06-04T13:27:48.961Z,101249.35
2019-06-04T13:30:40.299Z,101251.06
2019-06-04T13:33:08.267Z,101242.58
2019-06-04T13:35:35.923Z,101234.98
2019-06-04T13:38:04.526Z,101238.81
2019-06-04T13:40:32.179Z,101242.21
2019-06-04T13:43:01.178Z,101232.00
2019-06-04T13:45:28.959Z,101227.88
2019-06-04T13:47:56.491Z,101223.38
2019-06-04T13:50:24.009Z,101223.77
2019-06-04T13:52:51.546Z,101219.73
2019-06-04T13:55:19.091Z,101217.02
2019-06-04T13:57:47.364Z,101217.34
2019-06-04T14:00:15.329Z,101218.55
2019-06-04T14:02:42.900Z,101217.55
2019-06-04T14:05:10.806Z,101211.73
2019-06-04T14:07:38.316Z,101209.41
2019-06-04T14:10:07.448Z,101200.45
2019-06-04T14:12:35.293Z,101192.38
2019-06-04T14:15:03.748Z,101185.63
2019-06-04T14:17:31.514Z,101183.69
2019-06-04T14:19:59.047Z,101181.16
2019-06-04T14:22:26.569Z,101173.34
2019-06-04T14:25:11.705Z,101173.23
2019-06-04T14:27:39.454Z,101160.62
2019-06-04T14:30:07.510Z,101156.02
2019-06-04T14:32:35.035Z,101147.17
2019-06-04T14:35:02.653Z,101142.47
2019-06-04T14:37:30.150Z,101146.84
2019-06-04T14:40:17.506Z,101143.13
2019-06-04T14:42:27.126Z,101139.31
2019-06-04T14:44:54.659Z,101141.25
2019-06-04T14:47:22.154Z,101138.94
2019-06-04T14:49:49.802Z,101144.22
2019-06-04T14:52:17.336Z,101136.27
2019-06-04T14:54:44.836Z,101135.82
2019-06-04T14:57:12.651Z,101131.99
2019-06-04T14:59:40.285Z,101125.34
2019-06-04T15:02:08.382Z,101129.63
2019-06-04T15:04:35.992Z,101124.87
2019-06-04T15:07:03.557Z,101121.42
2019-06-04T15:09:31.186Z,101118.19
2019-06-04T15:11:58.724Z,101111.22
2019-06-04T15:14:26.232Z,101109.77
2019-06-04T15:16:53.774Z,101096.26
2019-06-04T15:19:21.322Z,101111.13
2019-06-04T15:21:48.849Z,101105.73
2019-06-04T15:24:16.873Z,101099.02
2019-06-04T15:26:44.509Z,101093.63
2019-06-04T15:29:13.141Z,101083.88
2019-06-04T15:31:40.888Z,101081.11
2019-06-04T15:34:08.573Z,101074.47
2019-06-04T15:36:36.067Z,101079.97
2019-06-04T15:39:04.709Z,101084.98
2019-06-04T15:41:45.551Z,101083.72
2019-06-04T15:44:02.100Z,101082.39
2019-06-04T15:46:29.672Z,101084.33
2019-06-04T15:48:57.211Z,101092.29
2019-06-04T15:51:24.845Z,101086.05
2019-06-04T15:53:52.330Z,101083.62
2019-06-04T15:56:20.726Z,101082.30
2019-06-04T15:58:48.536Z,101079.95
2019-06-04T16:01:17.341Z,101083.85
2019-06-04T16:03:50.327Z,101078.69
2019-06-04T16:06:14.732Z,101075.91
2019-06-04T16:08:42.445Z,101077.45
2019-06-04T16:11:09.962Z,101072.38
2019-06-04T16:13:37.550Z,101069.39
2019-06-04T16:16:07.384Z,101074.87
2019-06-04T16:18:34.818Z,101064.63
2019-06-04T16:21:02.569Z,101071.27
2019-06-04T16:23:30.501Z,101061.97
2019-06-04T16:26:04.468Z,101057.87
2019-06-04T16:28:35.077Z,101049.10
2019-06-04T16:31:02.609Z,101043.80
2019-06-04T16:33:30.143Z,101043.16
2019-06-04T16:35:57.650Z,101037.77
2019-06-04T16:38:29.104Z,101029.01
2019-06-04T16:40:54.651Z,101030.91
2019-06-04T16:43:25.585Z,101019.75
2019-06-04T16:45:53.346Z,101017.24
2019-06-04T16:48:21.668Z,101014.81
2019-06-04T16:50:50.323Z,101004.20
2019-06-04T16:53:18.802Z,101011.28
2019-06-04T16:55:46.478Z,101005.30
2019-06-04T16:58:14.162Z,101010.22
2019-06-04T17:00:41.679Z,101007.56
2019-06-04T17:03:09.192Z,101002.26
2019-06-04T17:05:36.721Z,101004.34
2019-06-04T17:08:04.372Z,101008.02
2019-06-04T17:10:33.429Z,100999.87
2019-06-04T17:13:03.069Z,101003.33
2019-06-04T17:15:30.806Z,100999.14
2019-06-04T17:17:58.426Z,100992.62
2019-06-04T17:20:27.063Z,100990.69
2019-06-04T17:22:54.753Z,100976.34
2019-06-04T17:25:23.389Z,100977.87
2019-06-04T17:27:51.092Z,100978.44
2019-06-04T17:30:18.620Z,100968.58
2019-06-04T17:32:46.137Z,100966.22
2019-06-04T17:35:13.693Z,100963.56
2019-06-04T17:37:41.183Z,100963.60
2019-06-04T17:40:08.720Z,100960.00
2019-06-04T17:42:36.250Z,100958.06
2019-06-04T17:45:04.205Z,100955.11
2019-06-04T17:47:32.327Z,100944.11
2019-06-04T17:49:59.957Z,100932.23
2019-06-04T17:52:28.305Z,100935.84
2019-06-04T17:54:56.029Z,100929.84
2019-06-04T17:57:24.473Z,100925.07
2019-06-04T17:59:53.180Z,100929.05
2019-06-04T18:02:20.979Z,100916.34
2019-06-04T18:04:48.467Z,100904.94
2019-06-04T18:07:16.031Z,100901.03
2019-06-04T18:09:43.524Z,100900.42
2019-06-04T18:12:11.068Z,100910.20
2019-06-04T18:14:39.729Z,100913.23
2019-06-04T18:17:07.604Z,100898.27
2019-06-04T18:19:36.009Z,100896.94
2019-06-04T18:22:03.650Z,100895.61
2019-06-04T18:24:32.209Z,100888.18
2019-06-04T18:26:59.860Z,100881.31
2019-06-04T18:29:27.538Z,100873.51
2019-06-04T18:31:55.247Z,100866.65
2019-06-04T18:34:22.888Z,100862.93
2019-06-04T18:36:50.488Z,100850.80
2019-06-04T18:39:18.001Z,100850.87
2019-06-04T18:41:45.549Z,100845.83
2019-06-04T18:44:13.244Z,100851.67
2019-06-04T18:46:40.790Z,100843.90
2019-06-04T18:49:08.286Z,100841.02
2019-06-04T18:51:37.263Z,100841.55
2019-06-04T18:54:05.014Z,100834.16
2019-06-04T18:56:33.760Z,100834.69
2019-06-04T18:59:01.500Z,100831.66
2019-06-04T19:01:30.047Z,100828.23
2019-06-04T19:03:57.676Z,100824.03
2019-06-04T19:06:25.282Z,100825.50
2019-06-04T19:08:52.785Z,100830.57
2019-06-04T19:11:20.331Z,100839.16
2019-06-04T19:14:02.675Z,100837.91
2019-06-04T19:16:23.365Z,100839.38
2019-06-04T19:18:50.910Z,100842.28
2019-06-04T19:21:18.574Z,100831.91
2019-06-04T19:23:46.167Z,100829.95
2019-06-04T19:26:13.669Z,100824.94
2019-06-04T19:28:41.410Z,100815.58
2019-06-04T19:31:09.091Z,100816.28
2019-06-04T19:33:39.688Z,100820.02
2019-06-04T19:36:07.204Z,100818.14
2019-06-04T19:38:35.977Z,100816.57
2019-06-04T19:41:03.839Z,100816.85
2019-06-04T19:43:31.418Z,100808.20
2019-06-04T19:45:58.924Z,100810.61
2019-06-04T19:48:26.447Z,100795.42
2019-06-04T19:50:54.045Z,100797.45
2019-06-04T19:53:27.572Z,100804.76
2019-06-04T19:56:01.078Z,100803.26
2019-06-04T19:58:28.816Z,100798.17
2019-06-04T20:00:56.452Z,100795.17
2019-06-04T20:03:24.013Z,100792.28
2019-06-04T20:05:55.853Z,100791.96
2019-06-04T20:08:20.987Z,100791.64
2019-06-04T20:10:52.463Z,100785.72
2019-06-04T20:13:17.907Z,100786.72
2019-06-04T20:15:45.789Z,100791.62
2019-06-04T20:18:13.386Z,100793.48
2019-06-04T20:20:40.890Z,100788.48
2019-06-04T20:23:08.410Z,100787.23
2019-06-04T20:25:36.034Z,100786.91
2019-06-04T20:28:03.537Z,100785.72
2019-06-04T20:30:31.027Z,100777.08
2019-06-04T20:32:59.202Z,100783.31
2019-06-04T20:35:27.132Z,100789.19
2019-06-04T20:38:01.558Z,100783.13
2019-06-04T20:40:24.081Z,100772.22
2019-06-04T20:42:51.596Z,100770.58
2019-06-04T20:45:19.183Z,100764.91
2019-06-04T20:47:46.914Z,100762.78
2019-06-04T20:50:14.817Z,100758.87
2019-06-04T20:52:42.744Z,100749.30
2019-06-04T20:55:10.382Z,100743.62
2019-06-04T20:57:38.039Z,100734.89
2019-06-04T21:00:05.610Z,100735.83
2019-06-04T21:02:33.235Z,100732.02
2019-06-04T21:05:00.724Z,100730.70
2019-06-04T21:07:28.277Z,100722.41
2019-06-04T21:09:55.812Z,100715.80
2019-06-04T21:12:23.322Z,100713.26
2019-06-04T21:14:51.581Z,100705.84
2019-06-04T21:17:19.259Z,100697.56
2019-06-04T21:19:48.220Z,100695.37
2019-06-04T21:22:16.422Z,100687.98
2019-06-04T21:24:45.193Z,100674.38
2019-06-04T21:27:12.849Z,100675.32
2019-06-04T21:29:40.493Z,100674.45
2019-06-04T21:32:08.359Z,100666.58
2019-06-04T21:34:35.862Z,100663.55
2019-06-04T21:37:03.406Z,100664.95
2019-06-04T21:39:30.927Z,100652.66
2019-06-04T21:41:58.452Z,100645.73
2019-06-04T21:44:25.987Z,100649.70
2019-06-04T21:46:57.433Z,100656.38
2019-06-04T21:49:23.024Z,100655.89
2019-06-04T21:51:51.081Z,100646.32
2019-06-04T21:54:19.873Z,100645.06
2019-06-04T21:56:47.946Z,100644.23
2019-06-04T21:59:16.842Z,100642.52
2019-06-04T22:01:44.460Z,100639.46
2019-06-04T22:04:12.002Z,100640.02
2019-06-04T22:06:39.530Z,100645.75
2019-06-04T22:09:09.979Z,100645.37
2019-06-04T22:11:37.460Z,100647.56
2019-06-04T22:14:05.046Z,100649.78
2019-06-04T22:16:32.552Z,100645.05
2019-06-04T22:19:00.874Z,100647.63
2019-06-04T22:21:30.251Z,100657.26
2019-06-04T22:23:58.871Z,100656.33
2019-06-04T22:26:28.942Z,100654.17
2019-06-04T22:28:56.291Z,100660.84
2019-06-04T22:31:23.880Z,100657.94
2019-06-04T22:33:52.816Z,100656.69
2019-06-04T22:36:20.732Z,100646.56
2019-06-04T22:38:48.603Z,100652.79
2019-06-04T22:41:17.526Z,100647.56
2019-06-04T22:43:45.035Z,100643.28
2019-06-04T22:46:20.005Z,100643.35
2019-06-04T22:48:41.983Z,100644.67
2019-06-04T22:51:09.493Z,100646.86
2019-06-04T22:53:37.064Z,100641.19
2019-06-04T22:56:04.579Z,100643.03
2019-06-04T22:58:32.178Z,100637.30
2019-06-04T23:00:59.845Z,100643.90
2019-06-04T23:03:27.469Z,100639.06
2019-06-04T23:05:56.147Z,100630.30
2019-06-04T23:08:24.050Z,100629.81
2019-06-04T23:10:52.454Z,100632.45
2019-06-04T23:13:20.975Z,100621.44
2019-06-04T23:15:48.732Z,100619.67
2019-06-04T23:18:16.282Z,100615.70
2019-06-04T23:20:43.920Z,100617.09
2019-06-04T23:23:11.416Z,100605.59
2019-06-04T23:25:38.912Z,100602.49
2019-06-04T23:28:06.437Z,100602.08
2019-06-04T23:30:34.031Z,100601.23
2019-06-04T23:33:02.534Z,100588.41
2019-06-04T23:35:30.145Z,100588.86
2019-06-04T23:37:58.838Z,100587.09
2019-06-04T23:40:26.664Z,100573.49
2019-06-04T23:42:55.678Z,100570.11
2019-06-04T23:45:23.298Z,100570.98
2019-06-04T23:47:50.839Z,100567.41
2019-06-04T23:50:18.346Z,100565.25
2019-06-04T23:52:45.989Z,100560.42
2019-06-04T23:55:13.488Z,100561.28
2019-06-04T23:57:41.011Z,100558.64
